createdAt,value
2022-12-26T00:00:11.976Z,27.10
2022-12-26T00:02:39.476Z,22.67
2022-12-26T00:05:07.240Z,24.45
2022-12-26T00:07:34.507Z,29.40
2022-12-26T00:10:01.889Z,29.08
2022-12-26T00:12:29.195Z,26.05
2022-12-26T00:14:56.843Z,36.22
2022-12-26T00:17:24.077Z,38.45
2022-12-26T00:19:51.359Z,37.58
2022-12-26T00:22:18.809Z,29.13
2022-12-26T00:24:47.510Z,30.13
2022-12-26T00:27:14.795Z,29.15
2022-12-26T00:29:45.019Z,29.85
2022-12-26T00:32:12.311Z,33.15
2022-12-26T00:34:40.560Z,40.30
2022-12-26T00:37:07.839Z,58.30
2022-12-26T00:39:35.150Z,35.10
2022-12-26T00:42:02.649Z,37.03
2022-12-26T00:44:29.932Z,31.52
2022-12-26T00:46:57.292Z,30.20
2022-12-26T00:49:25.383Z,31.30
2022-12-26T00:51:53.336Z,25.40
2022-12-26T00:54:20.928Z,28.30
2022-12-26T00:56:48.314Z,25.05
2022-12-26T00:59:15.649Z,25.50
2022-12-26T01:01:47.628Z,25.27
2022-12-26T01:04:15.117Z,37.88
2022-12-26T01:06:42.795Z,27.08
2022-12-26T01:09:12.123Z,28.60
2022-12-26T01:11:42.285Z,26.20
2022-12-26T01:14:13.013Z,30.73
2022-12-26T01:16:41.911Z,31.92
2022-12-26T01:19:12.375Z,30.65
2022-12-26T01:21:42.049Z,33.95
2022-12-26T01:24:09.717Z,31.10
2022-12-26T01:26:37.128Z,28.60
2022-12-26T01:29:04.465Z,36.67
2022-12-26T01:31:31.798Z,35.20
2022-12-26T01:34:00.502Z,29.40
2022-12-26T01:36:30.503Z,29.80
2022-12-26T01:38:57.839Z,32.70
2022-12-26T01:41:25.632Z,26.90
2022-12-26T01:43:59.062Z,34.10
2022-12-26T01:46:38.252Z,29.98
2022-12-26T01:49:30.171Z,27.27
2022-12-26T01:52:06.508Z,28.27
2022-12-26T01:57:32.518Z,25.25
2022-12-26T02:00:04.762Z,28.02
2022-12-26T02:03:00.326Z,26.17
2022-12-26T02:05:35.852Z,27.98
2022-12-26T02:08:16.291Z,27.65
2022-12-26T02:10:51.938Z,24.50
2022-12-26T02:13:20.275Z,25.55
2022-12-26T02:15:48.379Z,26.25
2022-12-26T02:18:15.987Z,24.00
2022-12-26T02:20:59.728Z,21.33
2022-12-26T02:23:42.426Z,24.20
2022-12-26T02:26:28.136Z,24.50
2022-12-26T02:29:01.677Z,24.02
2022-12-26T02:31:51.917Z,25.80
2022-12-26T02:34:34.569Z,23.25
2022-12-26T02:37:26.076Z,25.25
2022-12-26T02:40:15.387Z,25.45
2022-12-26T02:43:19.812Z,23.90
2022-12-26T02:46:08.733Z,22.15
2022-12-26T02:48:43.383Z,22.88
2022-12-26T02:51:51.881Z,23.15
2022-12-26T02:54:54.284Z,27.15
2022-12-26T02:57:47.829Z,23.10
2022-12-26T03:00:37.654Z,22.55
2022-12-26T03:03:53.951Z,25.15
2022-12-26T03:06:42.980Z,25.33
2022-12-26T03:09:34.017Z,23.52
2022-12-26T03:12:36.784Z,23.95
2022-12-26T03:15:08.176Z,28.75
2022-12-26T03:17:38.761Z,27.20
2022-12-26T03:20:12.214Z,30.50
2022-12-26T03:22:55.896Z,25.88
2022-12-26T03:26:14.172Z,27.33
2022-12-26T03:28:44.760Z,29.42
2022-12-26T03:31:14.252Z,26.98
2022-12-26T03:34:03.883Z,23.92
2022-12-26T03:36:52.717Z,22.67
2022-12-26T03:40:00.594Z,23.38
2022-12-26T03:46:06.520Z,23.50
2022-12-26T03:48:58.641Z,26.65
2022-12-26T03:52:00.082Z,27.90
2022-12-26T03:55:04.733Z,32.50
2022-12-26T03:57:58.223Z,39.85
2022-12-26T04:00:51.717Z,38.92
2022-12-26T04:03:42.570Z,40.28
2022-12-26T04:06:37.264Z,39.13
2022-12-26T04:09:31.235Z,45.85
2022-12-26T04:12:20.132Z,58.78
2022-12-26T04:15:18.485Z,62.95
2022-12-26T04:18:36.098Z,72.57
2022-12-26T04:21:06.193Z,66.18
2022-12-26T04:24:05.707Z,72.60
2022-12-26T04:26:57.182Z,77.55
2022-12-26T04:29:43.607Z,76.72
2022-12-26T04:32:52.978Z,73.28
2022-12-26T04:36:09.783Z,78.95
2022-12-26T04:39:04.935Z,84.25
2022-12-26T04:41:52.878Z,84.20
2022-12-26T04:44:24.457Z,88.63
2022-12-26T04:46:54.000Z,87.32
2022-12-26T04:49:43.305Z,86.90
2022-12-26T04:52:13.688Z,83.28
2022-12-26T04:54:44.051Z,91.18
2022-12-26T04:57:12.137Z,88.30
2022-12-26T04:59:39.606Z,89.53
2022-12-26T05:02:25.576Z,92.60
2022-12-26T05:05:11.618Z,91.07
2022-12-26T05:07:57.299Z,91.03
2022-12-26T05:10:30.509Z,78.95
2022-12-26T05:12:57.756Z,80.82
2022-12-26T05:15:25.995Z,78.53
2022-12-26T05:18:11.818Z,82.68
2022-12-26T05:20:58.540Z,79.78
2022-12-26T05:23:47.165Z,81.03
2022-12-26T05:26:40.309Z,86.72
2022-12-26T05:29:08.040Z,94.57
2022-12-26T05:31:37.357Z,96.05
2022-12-26T05:34:06.650Z,101.35
2022-12-26T05:36:39.314Z,97.93
2022-12-26T05:39:08.352Z,97.03
2022-12-26T05:41:36.557Z,99.03
2022-12-26T05:44:04.514Z,103.00
2022-12-26T05:46:31.935Z,103.13
2022-12-26T05:48:59.692Z,100.22
2022-12-26T05:51:27.490Z,103.00
2022-12-26T05:53:54.813Z,100.03
2022-12-26T05:56:22.704Z,94.75
2022-12-26T05:59:00.893Z,99.57
2022-12-26T06:01:30.451Z,100.60
2022-12-26T06:03:59.796Z,101.18
2022-12-26T06:06:27.929Z,100.40
2022-12-26T06:08:57.993Z,102.82
2022-12-26T06:11:26.911Z,93.80
2022-12-26T06:13:55.467Z,93.97
2022-12-26T06:16:22.936Z,101.50
2022-12-26T06:18:50.873Z,97.55
2022-12-26T06:21:20.037Z,92.32
2022-12-26T06:23:48.455Z,93.10
2022-12-26T06:26:16.403Z,86.65
2022-12-26T06:28:44.343Z,95.18
2022-12-26T06:31:16.027Z,92.82
2022-12-26T06:33:44.550Z,97.15
2022-12-26T06:36:15.030Z,92.70
2022-12-26T06:38:42.960Z,95.80
2022-12-26T06:41:13.349Z,97.32
2022-12-26T06:43:41.982Z,89.38
2022-12-26T06:46:13.635Z,94.63
2022-12-26T06:48:43.454Z,99.25
2022-12-26T06:51:15.932Z,97.95
2022-12-26T06:53:44.062Z,96.88
2022-12-26T06:56:21.542Z,99.00
2022-12-26T06:58:56.015Z,104.25
2022-12-26T07:01:24.099Z,104.63
2022-12-26T07:03:53.650Z,108.07
2022-12-26T07:06:25.115Z,109.60
2022-12-26T07:08:54.065Z,103.93
2022-12-26T07:11:32.952Z,104.63
2022-12-26T07:14:00.820Z,104.38
2022-12-26T07:16:28.793Z,107.20
2022-12-26T07:18:57.713Z,111.47
2022-12-26T07:21:26.452Z,115.85
2022-12-26T07:23:55.011Z,109.22
2022-12-26T07:26:24.212Z,113.15
2022-12-26T07:28:58.801Z,116.63
2022-12-26T07:31:29.904Z,105.13
2022-12-26T07:33:57.238Z,107.22
2022-12-26T07:36:25.424Z,110.15
2022-12-26T07:38:53.257Z,105.85
2022-12-26T07:41:39.409Z,111.78
2022-12-26T07:44:07.309Z,103.13
2022-12-26T07:46:35.173Z,107.93
2022-12-26T07:49:02.694Z,108.47
2022-12-26T07:51:30.306Z,111.43
2022-12-26T07:53:57.664Z,105.07
2022-12-26T07:56:25.421Z,107.30
2022-12-26T07:58:52.842Z,107.80
2022-12-26T08:01:20.802Z,115.55
2022-12-26T08:03:49.772Z,107.68
2022-12-26T08:06:18.175Z,107.93
2022-12-26T08:08:50.881Z,102.07
2022-12-26T08:11:22.157Z,99.25
2022-12-26T08:13:50.798Z,116.95
2022-12-26T08:16:19.000Z,106.43
2022-12-26T08:18:46.285Z,107.47
2022-12-26T08:21:13.581Z,100.88
2022-12-26T08:23:41.355Z,99.07
2022-12-26T08:26:11.871Z,101.60
2022-12-26T08:28:42.386Z,87.78
2022-12-26T08:31:10.749Z,82.88
2022-12-26T08:33:38.156Z,79.78
2022-12-26T08:36:08.115Z,75.88
2022-12-26T08:38:42.631Z,73.47
2022-12-26T08:41:09.966Z,76.30
2022-12-26T08:46:50.663Z,80.20
2022-12-26T08:49:21.340Z,84.00
2022-12-26T08:51:48.889Z,78.28
2022-12-26T08:54:16.190Z,77.13
2022-12-26T08:56:43.719Z,81.88
2022-12-26T08:59:10.970Z,78.78
2022-12-26T09:01:38.853Z,82.95
2022-12-26T09:04:07.246Z,80.53
2022-12-26T09:06:36.918Z,75.97
2022-12-26T09:09:05.732Z,79.60
2022-12-26T09:11:33.680Z,75.95
2022-12-26T09:14:02.686Z,72.03
2022-12-26T09:16:37.385Z,73.22
2022-12-26T09:19:06.371Z,75.57
2022-12-26T09:21:33.783Z,78.35
2022-12-26T09:24:03.979Z,72.20
2022-12-26T09:26:32.216Z,76.80
2022-12-26T09:29:00.093Z,71.40
2022-12-26T09:31:29.982Z,74.03
2022-12-26T09:33:58.001Z,71.93
2022-12-26T09:36:28.580Z,75.35
2022-12-26T09:38:59.938Z,79.18
2022-12-26T09:41:39.344Z,83.63
2022-12-26T09:44:17.654Z,80.15
2022-12-26T09:46:55.771Z,83.68
2022-12-26T09:49:37.450Z,75.75
2022-12-26T09:52:18.463Z,80.22
2022-12-26T09:54:56.552Z,76.22
2022-12-26T09:57:40.615Z,81.93
2022-12-26T10:00:16.411Z,82.38
2022-12-26T10:02:53.795Z,80.22
2022-12-26T10:05:24.929Z,80.72
2022-12-26T10:08:02.944Z,84.22
2022-12-26T10:10:54.550Z,80.43
2022-12-26T10:13:36.048Z,84.22
2022-12-26T10:16:22.182Z,88.25
2022-12-26T10:19:19.259Z,80.65
2022-12-26T10:21:59.355Z,87.88
2022-12-26T10:24:33.628Z,84.75
2022-12-26T10:27:07.528Z,88.70
2022-12-26T10:35:58.920Z,85.13
2022-12-26T10:38:35.639Z,86.43
2022-12-26T10:41:24.170Z,84.65
2022-12-26T10:43:51.815Z,88.75
2022-12-26T10:46:57.071Z,81.60
2022-12-26T10:49:26.765Z,85.00
2022-12-26T10:51:57.023Z,84.93
2022-12-26T10:54:24.366Z,81.05
2022-12-26T10:56:53.408Z,79.20
2022-12-26T10:59:24.942Z,87.90
2022-12-26T11:01:52.421Z,77.72
2022-12-26T11:04:44.431Z,78.32
2022-12-26T11:07:17.468Z,84.72
2022-12-26T11:09:55.843Z,82.13
2022-12-26T11:13:02.517Z,84.43
2022-12-26T11:15:38.873Z,80.95
2022-12-26T11:18:38.869Z,81.65
2022-12-26T11:21:18.468Z,83.57
2022-12-26T11:23:47.837Z,82.38
2022-12-26T11:26:20.913Z,83.78
2022-12-26T11:29:02.417Z,82.70
2022-12-26T11:31:31.358Z,83.07
2022-12-26T11:34:01.302Z,85.63
2022-12-26T11:36:30.298Z,88.15
2022-12-26T11:39:32.858Z,80.90
2022-12-26T11:42:04.365Z,80.20
2022-12-26T11:44:36.448Z,92.32
2022-12-26T11:50:31.564Z,82.00
2022-12-26T11:52:58.775Z,82.50
2022-12-26T11:55:30.996Z,86.05
2022-12-26T11:58:12.132Z,83.00
2022-12-26T12:00:41.989Z,84.55
2022-12-26T12:03:27.834Z,80.82
2022-12-26T12:06:37.338Z,76.85
2022-12-26T12:09:24.643Z,74.30
2022-12-26T12:11:51.900Z,75.85
2022-12-26T12:14:46.893Z,85.13
2022-12-26T12:17:48.574Z,83.28
2022-12-26T12:20:33.155Z,94.07
2022-12-26T12:23:32.971Z,78.32
2022-12-26T12:26:17.521Z,86.38
2022-12-26T12:28:50.999Z,90.30
2022-12-26T12:31:28.939Z,87.15
2022-12-26T12:34:21.287Z,93.70
2022-12-26T12:37:03.622Z,98.50
2022-12-26T12:39:53.971Z,96.35
2022-12-26T12:42:52.933Z,105.10
2022-12-26T12:45:33.065Z,88.10
2022-12-26T12:48:20.642Z,90.35
2022-12-26T12:50:56.874Z,89.63
2022-12-26T12:56:03.203Z,100.03
2022-12-26T12:58:50.073Z,102.07
2022-12-26T13:01:44.025Z,102.38
2022-12-26T13:04:22.887Z,97.40
2022-12-26T13:06:55.572Z,95.05
2022-12-26T13:09:35.946Z,96.78
2022-12-26T13:12:09.529Z,102.35
2022-12-26T13:15:08.336Z,99.25
2022-12-26T13:17:45.441Z,111.47
2022-12-26T13:20:21.453Z,119.22
2022-12-26T13:26:12.259Z,104.32
2022-12-26T13:29:06.137Z,105.72
2022-12-26T13:31:55.554Z,99.57
2022-12-26T13:34:48.610Z,100.35
2022-12-26T13:38:16.673Z,98.45
2022-12-26T13:41:23.395Z,162.35
2022-12-26T13:44:15.736Z,101.93
2022-12-26T13:46:51.714Z,116.63
2022-12-26T13:49:37.192Z,114.28
2022-12-26T13:52:19.356Z,102.22
2022-12-26T13:54:52.172Z,92.45
2022-12-26T13:57:44.915Z,98.78
2022-12-26T14:00:15.482Z,106.38
2022-12-26T14:03:19.774Z,100.53
2022-12-26T14:05:56.432Z,100.38
2022-12-26T14:12:20.602Z,97.93
2022-12-26T14:15:32.909Z,90.47
2022-12-26T14:18:37.749Z,86.78
2022-12-26T14:21:29.189Z,91.18
2022-12-26T14:24:10.715Z,89.68
2022-12-26T14:26:49.866Z,102.85
2022-12-26T14:29:39.452Z,101.43
2022-12-26T14:32:39.295Z,89.03
2022-12-26T14:42:04.052Z,101.50
2022-12-26T14:44:34.492Z,125.18
2022-12-26T14:47:38.062Z,115.78
2022-12-26T14:53:37.723Z,98.82
2022-12-26T14:57:21.816Z,116.30
2022-12-26T15:00:28.727Z,124.65
2022-12-26T15:02:59.088Z,116.32
2022-12-26T15:05:46.676Z,144.60
2022-12-26T15:09:09.076Z,159.25
2022-12-26T15:11:51.659Z,145.27
2022-12-26T15:14:29.926Z,130.93
2022-12-26T15:17:26.371Z,155.75
2022-12-26T15:20:12.455Z,140.97
2022-12-26T15:23:05.775Z,145.55
2022-12-26T15:25:59.827Z,129.15
2022-12-26T15:28:58.373Z,118.45
2022-12-26T15:31:40.861Z,125.13
2022-12-26T15:34:13.951Z,152.65
2022-12-26T15:37:01.117Z,142.50
2022-12-26T15:39:37.423Z,126.72
2022-12-26T15:44:44.514Z,106.50
2022-12-26T15:47:48.167Z,111.10
2022-12-26T15:50:34.081Z,108.70
2022-12-26T15:53:19.260Z,112.40
2022-12-26T15:56:07.970Z,105.85
2022-12-26T15:58:55.425Z,113.95
2022-12-26T16:01:43.661Z,108.70
2022-12-26T16:04:39.988Z,114.75
2022-12-26T16:07:44.683Z,108.30
2022-12-26T16:10:29.967Z,104.57
2022-12-26T16:13:33.224Z,112.82
2022-12-26T16:16:00.870Z,113.20
2022-12-26T16:19:12.208Z,113.65
2022-12-26T16:22:25.381Z,108.90
2022-12-26T16:24:54.889Z,113.03
2022-12-26T16:27:29.461Z,107.38
2022-12-26T16:30:20.836Z,109.40
2022-12-26T16:32:49.724Z,105.60
2022-12-26T16:35:32.165Z,111.57
2022-12-26T16:38:03.843Z,115.88
2022-12-26T16:40:38.202Z,107.65
2022-12-26T16:43:46.120Z,110.80
2022-12-26T16:46:30.933Z,107.43
2022-12-26T16:49:01.282Z,112.28
2022-12-26T16:51:40.899Z,110.85
2022-12-26T16:54:29.885Z,112.05
2022-12-26T16:57:19.021Z,109.53
2022-12-26T16:59:59.510Z,102.90
2022-12-26T17:02:53.696Z,101.05
2022-12-26T17:05:26.121Z,110.50
2022-12-26T17:07:58.393Z,109.38
2022-12-26T17:10:33.549Z,106.50
2022-12-26T17:13:05.291Z,103.05
2022-12-26T17:15:36.656Z,104.03
2022-12-26T17:18:30.623Z,111.55
2022-12-26T17:21:31.813Z,106.18
2022-12-26T17:24:15.252Z,102.30
2022-12-26T17:26:43.837Z,101.68
2022-12-26T17:29:47.961Z,106.25
2022-12-26T17:32:28.457Z,102.72
2022-12-26T17:34:59.194Z,114.07
2022-12-26T17:37:28.048Z,99.85
2022-12-26T17:40:03.472Z,109.38
2022-12-26T17:42:45.744Z,100.65
2022-12-26T17:45:25.274Z,110.28
2022-12-26T17:47:59.009Z,103.40
2022-12-26T17:50:37.682Z,106.90
2022-12-26T17:53:37.453Z,102.03
2022-12-26T17:56:17.701Z,113.20
2022-12-26T17:58:45.752Z,108.00
2022-12-26T18:01:19.059Z,113.05
2022-12-26T18:03:48.225Z,105.57
2022-12-26T18:06:19.103Z,113.10
2022-12-26T18:09:20.205Z,109.38
2022-12-26T18:11:48.152Z,107.80
2022-12-26T18:14:15.617Z,108.75
2022-12-26T18:16:42.997Z,118.72
2022-12-26T18:19:15.865Z,130.20
2022-12-26T18:21:44.048Z,128.35
2022-12-26T18:24:13.148Z,105.55
2022-12-26T18:26:40.668Z,108.45
2022-12-26T18:29:09.768Z,106.20
2022-12-26T18:32:02.741Z,105.15
2022-12-26T18:34:30.246Z,107.28
2022-12-26T18:37:00.591Z,109.80
2022-12-26T18:39:30.458Z,113.88
2022-12-26T18:41:57.730Z,116.43
2022-12-26T18:44:28.800Z,109.47
2022-12-26T18:46:56.138Z,111.93
2022-12-26T18:49:29.399Z,115.28
2022-12-26T18:51:56.752Z,112.35
2022-12-26T18:54:24.042Z,109.85
2022-12-26T18:56:54.551Z,107.05
2022-12-26T18:59:25.577Z,110.63
2022-12-26T19:01:53.496Z,109.20
2022-12-26T19:04:21.572Z,106.93
2022-12-26T19:06:49.199Z,110.65
2022-12-26T19:09:16.768Z,112.55
2022-12-26T19:11:50.401Z,116.68
2022-12-26T19:14:20.434Z,115.40
2022-12-26T19:16:47.859Z,109.45
2022-12-26T19:19:40.235Z,111.53
2022-12-26T19:22:08.278Z,111.13
2022-12-26T19:24:35.589Z,114.45
2022-12-26T19:27:03.306Z,118.07
2022-12-26T19:29:30.681Z,122.15
2022-12-26T19:31:57.992Z,116.72
2022-12-26T19:34:25.447Z,120.70
2022-12-26T19:36:52.765Z,118.40
2022-12-26T19:39:20.739Z,113.03
2022-12-26T19:41:48.197Z,115.10
2022-12-26T19:44:15.553Z,110.90
2022-12-26T19:46:43.150Z,115.93
2022-12-26T19:49:10.401Z,109.20
2022-12-26T19:51:37.955Z,108.93
2022-12-26T19:54:06.821Z,109.30
2022-12-26T19:56:34.479Z,104.78
2022-12-26T19:59:02.179Z,114.47
2022-12-26T20:01:32.290Z,112.70
2022-12-26T20:04:02.380Z,104.97
2022-12-26T20:06:32.844Z,114.15
2022-12-26T20:09:03.706Z,113.30
2022-12-26T20:11:36.689Z,107.82
2022-12-26T20:14:06.274Z,113.45
2022-12-26T20:19:22.901Z,115.80
2022-12-26T20:21:53.892Z,118.97
2022-12-26T20:24:22.918Z,114.90
2022-12-26T20:26:51.636Z,114.10
2022-12-26T20:29:19.181Z,117.63
2022-12-26T20:31:46.643Z,121.18
2022-12-26T20:34:16.523Z,118.72
2022-12-26T20:36:44.217Z,117.25
2022-12-26T20:39:14.862Z,116.32
2022-12-26T20:41:42.363Z,107.25
2022-12-26T20:44:12.643Z,109.15
2022-12-26T20:46:40.770Z,108.45
2022-12-26T20:49:08.182Z,110.32
2022-12-26T20:51:38.163Z,109.72
2022-12-26T20:54:08.431Z,113.30
2022-12-26T20:56:37.151Z,117.50
2022-12-26T20:59:05.604Z,113.65
2022-12-26T21:01:33.374Z,119.68
2022-12-26T21:04:01.124Z,116.57
2022-12-26T21:06:35.038Z,115.15
2022-12-26T21:09:04.715Z,121.50
2022-12-26T21:11:35.172Z,122.03
2022-12-26T21:14:05.721Z,122.80
2022-12-26T21:16:39.383Z,119.22
2022-12-26T21:19:12.611Z,121.55
2022-12-26T21:21:45.174Z,110.20
2022-12-26T21:24:15.298Z,123.28
2022-12-26T21:26:43.229Z,127.00
2022-12-26T21:29:19.750Z,120.57
2022-12-26T21:31:48.063Z,123.45
2022-12-26T21:34:17.170Z,122.47
2022-12-26T21:37:05.246Z,120.72
2022-12-26T21:39:34.054Z,122.55
2022-12-26T21:42:02.851Z,122.57
2022-12-26T21:48:10.228Z,114.32
2022-12-26T21:55:25.562Z,126.00
2022-12-26T21:57:56.414Z,125.85
2022-12-26T22:00:24.561Z,116.95
2022-12-26T22:06:34.442Z,124.55
2022-12-26T22:09:02.593Z,116.03
2022-12-26T22:12:14.363Z,124.80
2022-12-26T22:14:49.987Z,125.43
2022-12-26T22:17:20.415Z,117.57
2022-12-26T22:19:47.893Z,113.40
2022-12-26T22:22:15.517Z,121.05
2022-12-26T22:24:42.778Z,122.18
2022-12-26T22:27:12.967Z,119.22
2022-12-26T22:29:40.242Z,114.38
2022-12-26T22:32:08.428Z,124.18
2022-12-26T22:34:43.528Z,121.45
2022-12-26T22:37:10.961Z,127.10
2022-12-26T22:39:41.897Z,122.75
2022-12-26T22:42:09.704Z,124.00
2022-12-26T22:48:27.433Z,150.45
2022-12-26T22:50:56.120Z,143.75
2022-12-26T22:53:43.672Z,118.85
2022-12-26T22:56:12.286Z,122.72
2022-12-26T23:02:03.942Z,128.75
2022-12-26T23:04:39.619Z,279.42
2022-12-26T23:07:11.278Z,214.65
2022-12-26T23:09:39.750Z,160.63
2022-12-26T23:12:27.487Z,133.57
2022-12-26T23:14:58.562Z,151.40
2022-12-26T23:18:00.716Z,128.68
2022-12-26T23:20:53.347Z,145.38
2022-12-26T23:23:48.496Z,132.45
2022-12-26T23:26:49.966Z,123.97
2022-12-26T23:29:39.167Z,127.75
2022-12-26T23:32:11.238Z,132.45
2022-12-26T23:37:51.308Z,128.68
2022-12-26T23:40:23.450Z,141.80
2022-12-26T23:42:51.495Z,130.82
2022-12-26T23:45:21.125Z,133.48
2022-12-26T23:47:48.395Z,128.88
2022-12-26T23:50:17.005Z,133.60
2022-12-26T23:52:44.702Z,132.95
2022-12-26T23:55:19.140Z,128.38
2022-12-26T23:58:00.106Z,125.50
